Time;durP1;ratioP1;P1;durP2;ratioP2;P2;SDS_P1;SDS_P2;PMS_P1;PMS_P2;Temp;Humidity;BMP_temperature;BMP_pressure;BME280_temperature;BME280_humidity;BME280_pressure;Samples;Min_cycle;Max_cycle;Signal;HPM_P1;HPM_P2
2021/04/29 00:01:08;;;;;;;;;;;;;;;;;;4207714;34;19973;-85
2021/04/29 00:03:38;;;;;;;;;;;;;;;;;;4202529;34;19959;-84
2021/04/29 00:06:08;;;;;;;;;;;;;;;;;;4202790;34;19966;-85
2021/04/29 00:08:39;;;;;;;;;;;;;;;;;;4212760;34;19955;-84
2021/04/29 00:11:09;;;;;;;;;;;;;;;;;;4209221;34;20054;-86
2021/04/29 00:13:39;;;;;;;;;;;;;;;;;;4205176;34;20005;-85
2021/04/29 00:16:09;;;;;;;;;;;;;;;;;;4210206;34;19981;-84
2021/04/29 00:18:44;;;;;;;;;;;;;;;;;;4196767;34;19963;-84
2021/04/29 00:21:11;;;;;;;;;;;;;;;;;;4197292;34;19963;-84
2021/04/29 00:23:39;;;;;;;;;;;;;;;;;;4221547;34;19958;-85
2021/04/29 00:26:10;;;;;;;;;;;;;;;;;;4216101;34;19962;-85
2021/04/29 00:28:47;;;;;;;;;;;;;;;;;;4205370;34;19965;-84
2021/04/29 00:31:17;;;;;;;;;;;;;;;;;;4214822;34;19978;-85
2021/04/29 00:33:47;;;;;;;;;;;;;;;;;;4203648;34;20022;-84
2021/04/29 00:36:17;;;;;;;;;;;;;;;;;;4211115;34;19977;-84
2021/04/29 00:38:48;;;;;;;;;;;;;;;;;;4210790;34;20317;-85
2021/04/29 00:41:23;;;;;;;;;;;;;;;;;;4201687;34;19991;-84
2021/04/29 00:43:54;;;;;;;;;;;;;;;;;;4206274;34;20021;-84
2021/04/29 00:46:24;;;;;;;;;;;;;;;;;;4214331;34;19971;-84
2021/04/29 00:48:57;;;;;;;;;;;;;;;;;;4215190;34;20432;-84
2021/04/29 00:51:27;;;;;;;;;;;;;;;;;;4200836;34;20359;-84
2021/04/29 00:53:58;;;;;;;;;;;;;;;;;;4210847;34;19977;-85
2021/04/29 00:56:25;;;;;;;;;;;;;;;;;;4208545;34;19962;-84
2021/04/29 00:58:55;;;;;;;;;;;;;;;;;;4208496;34;19969;-84
2021/04/29 01:01:27;;;;;;;;;;;;;;;;;;4212862;34;19970;-85
2021/04/29 01:03:57;;;;;;;;;;;;;;;;;;4209774;34;19969;-84
2021/04/29 01:06:28;;;;;;;;;;;;;;;;;;4211010;34;20268;-84
2021/04/29 01:08:57;;;;;;;;;;;;;;;;;;4205856;34;20012;-84
2021/04/29 01:11:28;;;;;;;;;;;;;;;;;;4204008;34;20047;-85
2021/04/29 01:14:00;;;;;;;;;;;;;;;;;;4192465;34;20035;-84
2021/04/29 01:16:32;;;;;;;;;;;;;;;;;;4224184;33;19966;-84
2021/04/29 01:19:02;;;;;;;;;;;;;;;;;;4213157;34;19959;-86
2021/04/29 01:21:33;;;;;;;;;;;;;;;;;;4207335;34;19970;-84
2021/04/29 01:24:03;;;;;;;;;;;;;;;;;;4211300;34;19958;-84
2021/04/29 01:26:34;;;;;;;;;;;;;;;;;;4208315;34;20039;-85
2021/04/29 01:29:04;;;;;;;;;;;;;;;;;;4211142;34;19962;-85
2021/04/29 01:31:34;;;;;;;;;;;;;;;;;;4197263;34;19998;-84
2021/04/29 01:34:04;;;;;;;;;;;;;;;;;;4199072;34;20006;-85
2021/04/29 01:36:32;;;;;;;;;;;;;;;;;;4205438;34;19962;-85
2021/04/29 01:39:03;;;;;;;;;;;;;;;;;;4198396;34;20547;-85
2021/04/29 01:41:31;;;;;;;;;;;;;;;;;;4197897;34;20039;-84
2021/04/29 01:44:01;;;;;;;;;;;;;;;;;;4190087;34;20417;-84
2021/04/29 01:46:32;;;;;;;;;;;;;;;;;;4206595;34;20080;-84
2021/04/29 01:49:03;;;;;;;;;;;;;;;;;;4201478;34;20050;-84
2021/04/29 01:51:31;;;;;;;;;;;;;;;;;;4200987;34;20336;-85
2021/04/29 01:54:01;;;;;;;;;;;;;;;;;;4203803;34;19987;-84
2021/04/29 01:56:32;;;;;;;;;;;;;;;;;;4203165;34;20025;-85
2021/04/29 01:59:02;;;;;;;;;;;;;;;;;;4202424;34;19955;-85
2021/04/29 02:01:32;;;;;;;;;;;;;;;;;;4189913;34;19962;-84
2021/04/29 02:04:02;;;;;;;;;;;;;;;;;;4211597;34;19977;-84
2021/04/29 02:06:30;;;;;;;;;;;;;;;;;;4211771;34;20339;-84
2021/04/29 02:09:01;;;;;;;;;;;;;;;;;;4205188;34;19959;-84
2021/04/29 02:11:31;;;;;;;;;;;;;;;;;;4210118;34;19971;-84
2021/04/29 02:14:02;;;;;;;;;;;;;;;;;;4209240;34;20053;-84
2021/04/29 02:16:33;;;;;;;;;;;;;;;;;;4201630;34;20029;-84
2021/04/29 02:19:03;;;;;;;;;;;;;;;;;;4202566;34;20694;-84
2021/04/29 02:21:35;;;;;;;;;;;;;;;;;;4206965;34;19982;-85
2021/04/29 02:24:06;;;;;;;;;;;;;;;;;;4206392;34;20579;-84
2021/04/29 02:26:36;;;;;;;;;;;;;;;;;;4209074;34;20066;-84
2021/04/29 02:29:06;;;;;;;;;;;;;;;;;;4199419;34;19995;-84
2021/04/29 02:31:34;;;;;;;;;;;;;;;;;;4201043;34;19971;-84
2021/04/29 02:34:11;;;;;;;;;;;;;;;;;;4201975;34;20366;-84
2021/04/29 02:36:42;;;;;;;;;;;;;;;;;;4205064;34;19975;-85
2021/04/29 02:39:13;;;;;;;;;;;;;;;;;;4204530;34;20703;-85
2021/04/29 02:41:43;;;;;;;;;;;;;;;;;;4205790;34;20496;-84
2021/04/29 02:44:22;;;;;;;;;;;;;;;;;;4206121;34;20222;-84
2021/04/29 02:46:52;;;;;;;;;;;;;;;;;;4207057;34;19955;-85
2021/04/29 02:49:23;;;;;;;;;;;;;;;;;;4199328;34;19979;-85
2021/04/29 02:51:58;;;;;;;;;;;;;;;;;;4208102;34;19967;-85
2021/04/29 02:54:28;;;;;;;;;;;;;;;;;;4207625;34;19954;-85
2021/04/29 02:57:00;;;;;;;;;;;;;;;;;;4209959;34;20021;-84
2021/04/29 02:59:27;;;;;;;;;;;;;;;;;;4204736;34;20010;-84
2021/04/29 03:01:57;;;;;;;;;;;;;;;;;;4197367;34;19959;-84
2021/04/29 03:04:29;;;;;;;;;;;;;;;;;;4203088;34;20018;-85
2021/04/29 03:06:59;;;;;;;;;;;;;;;;;;4199169;34;20431;-84
2021/04/29 03:09:30;;;;;;;;;;;;;;;;;;4199029;34;20407;-85
2021/04/29 03:12:06;;;;;;;;;;;;;;;;;;4235512;28;20425;-96
2021/04/29 03:14:49;;;;;;;;;;;;;;;;;;4207619;34;19985;-96
2021/04/29 03:17:33;;;;;;;;;;;;;;;;;;4200708;34;19966;-96
2021/04/29 03:20:19;;;;;;;;;;;;;;;;;;4214590;34;19977;-96
2021/04/29 03:22:51;;;;;;;;;;;;;;;;;;4199194;34;20087;-95
2021/04/29 03:25:44;;;;;;;;;;;;;;;;;;4194926;34;20012;-96
2021/04/29 03:28:15;;;;;;;;;;;;;;;;;;4203596;34;20006;-96
2021/04/29 03:30:50;;;;;;;;;;;;;;;;;;4209983;34;20002;-96
2021/04/29 03:33:57;;;;;;;;;;;;;;;;;;4197331;34;19973;-96
2021/04/29 03:36:37;;;;;;;;;;;;;;;;;;4198410;34;19971;-96
2021/04/29 03:39:46;;;;;;;;;;;;;;;;;;4199061;34;20392;-96
2021/04/29 03:43:05;;;;;;;;;;;;;;;;;;4199978;34;19981;-96
2021/04/29 03:46:01;;;;;;;;;;;;;;;;;;4215448;34;19958;-96
2021/04/29 03:48:49;;;;;;;;;;;;;;;;;;4202056;34;19955;-95
2021/04/29 03:51:47;;;;;;;;;;;;;;;;;;4186264;34;19992;-96
2021/04/29 03:54:23;;;;;;;;;;;;;;;;;;4201259;34;19967;-96
2021/04/29 03:56:58;;;;;;;;;;;;;;;;;;4204323;34;20007;-96
2021/04/29 03:59:32;;;;;;;;;;;;;;;;;;4196812;34;19996;-96
2021/04/29 04:02:05;;;;;;;;;;;;;;;;;;4195951;34;19984;-96
2021/04/29 04:04:43;;;;;;;;;;;;;;;;;;4198745;34;19974;-96
2021/04/29 04:07:50;;;;;;;;;;;;;;;;;;4212168;34;20002;-96
2021/04/29 04:10:24;;;;;;;;;;;;;;;;;;4194600;34;19976;-96
2021/04/29 04:13:09;;;;;;;;;;;;;;;;;;4198680;34;19959;-96
2021/04/29 04:15:42;;;;;;;;;;;;;;;;;;4190043;34;19987;-96
2021/04/29 04:18:34;;;;;;;;;;;;;;;;;;4135282;34;19984;-95
2021/04/29 04:21:08;;;;;;;;;;;;;;;;;;4140032;34;20004;-96
2021/04/29 04:23:36;;;;;;;;;;;;;;;;;;4136261;34;19984;-96
2021/04/29 04:26:11;;;;;;;;;;;;;;;;;;4204125;34;21670;-96
2021/04/29 04:28:54;;;;;;;;;;;;;;;;;;4200607;34;19951;-96
2021/04/29 04:31:44;;;;;;;;;;;;;;;;;;4199773;34;20026;-96
2021/04/29 04:34:26;;;;;;;;;;;;;;;;;;4200121;34;20072;-96
2021/04/29 04:37:20;;;;;;;;;;;;;;;;;;4202757;34;19990;-96
2021/04/29 04:40:36;;;;;;;;;;;;;;;;;;4211955;34;19991;-96
2021/04/29 04:43:50;;;;;;;;;;;;;;;;;;4202652;34;20005;-96
2021/04/29 04:46:25;;;;;;;;;;;;;;;;;;4197407;34;19994;-96
2021/04/29 04:49:20;;;;;;;;;;;;;;;;;;4187329;34;19955;-96
2021/04/29 04:52:10;;;;;;;;;;;;;;;;;;4197918;34;20020;-96
2021/04/29 04:54:53;;;;;;;;;;;;;;;;;;4191749;34;19970;-96
2021/04/29 04:57:45;;;;;;;;;;;;;;;;;;4217822;34;19977;-96
2021/04/29 05:01:06;;;;;;;;;;;;;;;;;;4203249;34;20000;-96
2021/04/29 05:03:50;;;;;;;;;;;;;;;;;;4202798;34;19979;-96
2021/04/29 05:06:52;;;;;;;;;;;;;;;;;;4196286;34;20013;-96
2021/04/29 05:09:39;;;;;;;;;;;;;;;;;;4205583;34;20357;-96
2021/04/29 05:12:07;;;;;;;;;;;;;;;;;;4196851;34;19987;-96
2021/04/29 05:14:44;;;;;;;;;;;;;;;;;;4196882;34;19973;-96
2021/04/29 05:17:54;;;;;;;;;;;;;;;;;;4201336;34;19959;-95
2021/04/29 05:21:06;;;;;;;;;;;;;;;;;;4200220;34;19990;-96
2021/04/29 05:26:47;;;;;;;;;;;;;;;;;;4217143;34;20079;-96
2021/04/29 05:29:31;;;;;;;;;;;;;;;;;;4210291;34;19982;-96
2021/04/29 05:32:13;;;;;;;;;;;;;;;;;;4200105;34;19972;-96
2021/04/29 05:35:14;;;;;;;;;;;;;;;;;;4214233;34;20014;-96
2021/04/29 05:37:55;;;;;;;;;;;;;;;;;;4196051;34;19963;-96
2021/04/29 05:40:46;;;;;;;;;;;;;;;;;;4210421;34;20456;-96
2021/04/29 05:43:39;;;;;;;;;;;;;;;;;;4208161;34;19965;-96
2021/04/29 05:46:12;;;;;;;;;;;;;;;;;;4184849;34;19959;-96
2021/04/29 05:48:46;;;;;;;;;;;;;;;;;;4192337;34;19955;-96
2021/04/29 05:51:17;;;;;;;;;;;;;;;;;;4197499;34;19969;-96
2021/04/29 05:54:05;;;;;;;;;;;;;;;;;;4197922;34;20694;-96
2021/04/29 05:56:43;;;;;;;;;;;;;;;;;;4200545;34;19963;-96
2021/04/29 05:59:41;;;;;;;;;;;;;;;;;;4199263;34;19973;-96
2021/04/29 06:02:44;;;;;;;;;;;;;;;;;;4201509;34;19950;-96
2021/04/29 06:05:47;;;;;;;;;;;;;;;;;;4196883;34;19959;-96
2021/04/29 06:08:17;;;;;;;;;;;;;;;;;;4194986;34;19951;-95
2021/04/29 06:10:46;;;;;;;;;;;;;;;;;;4187581;34;19952;-95
2021/04/29 06:13:21;;;;;;;;;;;;;;;;;;4190624;34;20086;-95
2021/04/29 06:16:06;;;;;;;;;;;;;;;;;;4196069;34;19990;-94
2021/04/29 06:18:34;;;;;;;;;;;;;;;;;;4191986;34;19959;-96
2021/04/29 06:21:10;;;;;;;;;;;;;;;;;;4194350;34;19993;-96
2021/04/29 06:23:38;;;;;;;;;;;;;;;;;;4192533;34;19951;-96
2021/04/29 06:26:10;;;;;;;;;;;;;;;;;;4204066;34;19979;-95
2021/04/29 06:28:38;;;;;;;;;;;;;;;;;;4194775;34;19959;-95
2021/04/29 06:31:09;;;;;;;;;;;;;;;;;;4191983;34;20544;-96
2021/04/29 06:33:49;;;;;;;;;;;;;;;;;;4188884;34;19967;-96
2021/04/29 06:36:29;;;;;;;;;;;;;;;;;;4193088;34;20361;-96
2021/04/29 06:39:07;;;;;;;;;;;;;;;;;;4194200;34;20316;-96
2021/04/29 06:41:44;;;;;;;;;;;;;;;;;;4190428;34;19995;-96
2021/04/29 06:44:15;;;;;;;;;;;;;;;;;;4196645;34;19986;-96
2021/04/29 06:46:58;;;;;;;;;;;;;;;;;;4195160;34;19954;-96
2021/04/29 06:49:53;;;;;;;;;;;;;;;;;;4194160;34;19967;-96
2021/04/29 06:52:51;;;;;;;;;;;;;;;;;;4200218;34;19964;-96
2021/04/29 06:55:48;;;;;;;;;;;;;;;;;;4212203;34;19957;-96
2021/04/29 06:59:24;;;;;;;;;;;;;;;;;;4206941;34;19973;-96
2021/04/29 07:02:48;;;;;;;;;;;;;;;;;;4190042;34;19959;-96
2021/04/29 07:06:02;;;;;;;;;;;;;;;;;;4152236;34;20007;-96
2021/04/29 07:08:52;;;;;;;;;;;;;;;;;;4157424;34;19995;-96
2021/04/29 07:11:24;;;;;;;;;;;;;;;;;;4158309;34;19993;-96
2021/04/29 07:14:11;;;;;;;;;;;;;;;;;;4155674;34;19975;-96
2021/04/29 07:16:55;;;;;;;;;;;;;;;;;;4169423;34;20002;-96
2021/04/29 07:19:40;;;;;;;;;;;;;;;;;;4195183;29;19971;-96
2021/04/29 07:22:16;;;;;;;;;;;;;;;;;;4165227;34;19964;-96
2021/04/29 07:24:55;;;;;;;;;;;;;;;;;;4171867;34;20007;-96
2021/04/29 07:27:36;;;;;;;;;;;;;;;;;;4169683;34;20075;-96
2021/04/29 07:30:19;;;;;;;;;;;;;;;;;;4160712;34;19967;-96
2021/04/29 07:32:47;;;;;;;;;;;;;;;;;;4157140;34;19978;-96
2021/04/29 07:35:25;;;;;;;;;;;;;;;;;;4169120;34;20027;-96
2021/04/29 07:38:02;;;;;;;;;;;;;;;;;;4160797;34;20022;-96
2021/04/29 07:40:49;;;;;;;;;;;;;;;;;;4157952;34;19960;-96
2021/04/29 07:43:28;;;;;;;;;;;;;;;;;;4210374;34;20007;-96
2021/04/29 07:45:57;;;;;;;;;;;;;;;;;;4197778;34;19969;-96
2021/04/29 07:48:31;;;;;;;;;;;;;;;;;;4197882;34;20006;-96
2021/04/29 07:51:37;;;;;;;;;;;;;;;;;;4192615;34;19999;-96
2021/04/29 07:54:07;;;;;;;;;;;;;;;;;;4196547;34;19977;-96
2021/04/29 07:59:10;;;;;;;;;;;;;;;;;;4208056;34;19998;-96
2021/04/29 08:01:53;;;;;;;;;;;;;;;;;;4199017;34;19976;-96
2021/04/29 08:04:33;;;;;;;;;;;;;;;;;;4199974;34;20002;-96
2021/04/29 08:07:01;;;;;;;;;;;;;;;;;;4202552;34;20000;-96
2021/04/29 08:09:59;;;;;;;;;;;;;;;;;;4208466;34;19950;-96
2021/04/29 08:12:44;;;;;;;;;;;;;;;;;;4221259;34;20432;-96
2021/04/29 08:15:18;;;;;;;;;;;;;;;;;;4205385;34;19962;-96
2021/04/29 08:17:50;;;;;;;;;;;;;;;;;;4203437;34;20038;-96
2021/04/29 08:20:45;;;;;;;;;;;;;;;;;;4200161;34;19971;-96
2021/04/29 08:23:24;;;;;;;;;;;;;;;;;;4220042;34;19960;-96
2021/04/29 08:26:03;;;;;;;;;;;;;;;;;;4205971;34;19970;-96
2021/04/29 08:28:31;;;;;;;;;;;;;;;;;;4210700;34;19963;-96
2021/04/29 08:31:21;;;;;;;;;;;;;;;;;;4194965;34;19944;-96
2021/04/29 08:34:00;;;;;;;;;;;;;;;;;;4191296;34;19972;-96
2021/04/29 08:37:06;;;;;;;;;;;;;;;;;;4168270;34;20422;-96
2021/04/29 08:39:56;;;;;;;;;;;;;;;;;;4176388;34;19971;-96
2021/04/29 08:42:30;;;;;;;;;;;;;;;;;;4183916;34;19955;-96
2021/04/29 08:47:56;;;;;;;;;;;;;;;;;;4193448;34;19970;-96
2021/04/29 08:51:06;;;;;;;;;;;;;;;;;;4169336;29;19974;-84
2021/04/29 08:53:37;;;;;;;;;;;;;;;;;;4170658;34;19991;-83
2021/04/29 08:56:07;;;;;;;;;;;;;;;;;;4169640;34;20869;-84
2021/04/29 08:58:38;;;;;;;;;;;;;;;;;;4171525;34;19985;-84
2021/04/29 09:01:05;;;;;;;;;;;;;;;;;;4181036;34;19964;-83
2021/04/29 09:03:37;;;;;;;;;;;;;;;;;;4170906;34;19997;-84
2021/04/29 09:06:07;;;;;;;;;;;;;;;;;;4187614;34;20093;-85
2021/04/29 09:08:38;;;;;;;;;;;;;;;;;;4220066;34;19989;-84
2021/04/29 09:11:07;;;;;;;;;;;;;;;;;;4215465;34;19997;-84
2021/04/29 09:13:37;;;;;;;;;;;;;;;;;;4216389;34;19954;-84
2021/04/29 09:16:07;;;;;;;;;;;;;;;;;;4209253;34;20004;-85
2021/04/29 09:18:37;;;;;;;;;;;;;;;;;;4207907;34;20002;-84
2021/04/29 09:21:10;;;;;;;;;;;;;;;;;;4212232;34;20698;-84
2021/04/29 09:23:41;;;;;;;;;;;;;;;;;;4213066;34;19977;-84
2021/04/29 09:26:11;;;;;;;;;;;;;;;;;;4212748;34;20053;-84
2021/04/29 09:28:42;;;;;;;;;;;;;;;;;;4218155;34;19954;-84
2021/04/29 09:31:12;;;;;;;;;;;;;;;;;;4217375;34;20463;-84
2021/04/29 09:33:42;;;;;;;;;;;;;;;;;;4200291;34;20006;-84
2021/04/29 09:36:13;;;;;;;;;;;;;;;;;;4214018;34;20374;-84
2021/04/29 09:38:43;;;;;;;;;;;;;;;;;;4212280;34;20122;-84
2021/04/29 09:41:13;;;;;;;;;;;;;;;;;;4218517;34;19994;-84
2021/04/29 09:43:44;;;;;;;;;;;;;;;;;;4207516;34;19978;-84
2021/04/29 09:46:11;;;;;;;;;;;;;;;;;;4209803;34;20240;-85
2021/04/29 09:48:42;;;;;;;;;;;;;;;;;;4200930;34;20030;-84
2021/04/29 09:51:17;;;;;;;;;;;;;;;;;;4211859;34;19963;-84
2021/04/29 09:53:47;;;;;;;;;;;;;;;;;;4215139;34;19966;-84
2021/04/29 09:56:20;;;;;;;;;;;;;;;;;;4207720;34;20394;-84
2021/04/29 09:58:57;;;;;;;;;;;;;;;;;;4219757;34;19972;-85
2021/04/29 10:01:27;;;;;;;;;;;;;;;;;;4223366;34;20304;-85
2021/04/29 10:03:58;;;;;;;;;;;;;;;;;;4203543;34;20331;-84
2021/04/29 10:06:28;;;;;;;;;;;;;;;;;;4191826;34;19958;-85
2021/04/29 10:08:58;;;;;;;;;;;;;;;;;;4212306;34;19998;-84
2021/04/29 10:11:28;;;;;;;;;;;;;;;;;;4213126;34;20019;-84
2021/04/29 10:13:59;;;;;;;;;;;;;;;;;;4208919;34;20005;-84
2021/04/29 10:16:26;;;;;;;;;;;;;;;;;;4207577;34;19975;-84
2021/04/29 10:18:57;;;;;;;;;;;;;;;;;;4210156;34;19973;-83
2021/04/29 10:21:27;;;;;;;;;;;;;;;;;;4223283;34;20374;-84
2021/04/29 10:23:57;;;;;;;;;;;;;;;;;;4205884;34;20014;-84
2021/04/29 10:26:28;;;;;;;;;;;;;;;;;;4205824;34;20005;-84
2021/04/29 10:28:58;;;;;;;;;;;;;;;;;;4192480;34;20075;-84
2021/04/29 10:31:30;;;;;;;;;;;;;;;;;;4204376;34;19963;-84
2021/04/29 10:34:00;;;;;;;;;;;;;;;;;;4209602;34;20001;-84
2021/04/29 10:36:30;;;;;;;;;;;;;;;;;;4213555;34;19973;-84
2021/04/29 10:39:00;;;;;;;;;;;;;;;;;;4217330;34;20358;-84
2021/04/29 10:41:28;;;;;;;;;;;;;;;;;;4211040;34;20003;-84
2021/04/29 10:43:59;;;;;;;;;;;;;;;;;;4222599;34;19963;-84
2021/04/29 10:46:29;;;;;;;;;;;;;;;;;;4216819;34;20336;-84
2021/04/29 10:48:59;;;;;;;;;;;;;;;;;;4217149;34;20054;-84
2021/04/29 10:51:29;;;;;;;;;;;;;;;;;;4207276;34;19959;-83
2021/04/29 10:54:00;;;;;;;;;;;;;;;;;;4212550;34;19962;-83
2021/04/29 10:56:30;;;;;;;;;;;;;;;;;;4197583;34;20335;-84
2021/04/29 10:59:00;;;;;;;;;;;;;;;;;;4216012;34;20306;-84
2021/04/29 11:01:30;;;;;;;;;;;;;;;;;;4210600;34;19958;-84
2021/04/29 11:04:01;;;;;;;;;;;;;;;;;;4208574;34;20203;-84
2021/04/29 11:06:33;;;;;;;;;;;;;;;;;;4213374;34;20153;-84
2021/04/29 11:09:03;;;;;;;;;;;;;;;;;;4221605;34;19990;-84
2021/04/29 11:11:34;;;;;;;;;;;;;;;;;;4209172;34;20033;-83
2021/04/29 11:14:04;;;;;;;;;;;;;;;;;;4198709;34;20340;-83
2021/04/29 11:16:35;;;;;;;;;;;;;;;;;;4201975;34;19966;-84
2021/04/29 11:19:05;;;;;;;;;;;;;;;;;;4221853;34;19996;-83
2021/04/29 11:21:35;;;;;;;;;;;;;;;;;;4213297;34;20006;-84
2021/04/29 11:24:06;;;;;;;;;;;;;;;;;;4224197;34;19972;-83
2021/04/29 11:26:36;;;;;;;;;;;;;;;;;;4214783;34;19959;-83
2021/04/29 11:29:06;;;;;;;;;;;;;;;;;;4217142;34;19951;-84
2021/04/29 11:31:36;;;;;;;;;;;;;;;;;;4210404;34;20010;-84
2021/04/29 11:34:07;;;;;;;;;;;;;;;;;;4210483;34;19959;-84
2021/04/29 11:36:37;;;;;;;;;;;;;;;;;;4212320;34;19977;-83
2021/04/29 11:39:05;;;;;;;;;;;;;;;;;;4222051;34;19969;-84
2021/04/29 11:41:32;;;;;;;;;;;;;;;;;;4209770;34;20043;-84
2021/04/29 11:44:02;;;;;;;;;;;;;;;;;;4212541;34;20247;-83
2021/04/29 11:46:33;;;;;;;;;;;;;;;;;;4219649;34;20001;-83
2021/04/29 11:49:03;;;;;;;;;;;;;;;;;;4211342;34;20051;-84
2021/04/29 11:51:33;;;;;;;;;;;;;;;;;;4204753;34;20425;-83
2021/04/29 11:54:03;;;;;;;;;;;;;;;;;;4220101;34;20013;-84
2021/04/29 11:56:34;;;;;;;;;;;;;;;;;;4215313;34;20319;-83
2021/04/29 11:59:05;;;;;;;;;;;;;;;;;;4221149;34;19958;-84
2021/04/29 12:01:35;;;;;;;;;;;;;;;;;;4213094;33;19982;-83
2021/04/29 12:04:05;;;;;;;;;;;;;;;;;;4222785;34;19973;-83
2021/04/29 12:06:35;;;;;;;;;;;;;;;;;;4213789;34;20029;-83
2021/04/29 12:09:05;;;;;;;;;;;;;;;;;;4221800;34;19959;-84
2021/04/29 12:11:41;;;;;;;;;;;;;;;;;;4215196;34;20359;-83
2021/04/29 12:14:11;;;;;;;;;;;;;;;;;;4216330;34;20037;-84
2021/04/29 12:16:41;;;;;;;;;;;;;;;;;;4199091;34;20307;-84
2021/04/29 12:19:12;;;;;;;;;;;;;;;;;;4211537;34;20371;-83
2021/04/29 12:21:43;;;;;;;;;;;;;;;;;;4208178;34;20042;-83
2021/04/29 12:24:13;;;;;;;;;;;;;;;;;;4214359;34;20042;-84
2021/04/29 12:26:43;;;;;;;;;;;;;;;;;;4221280;34;20020;-83
2021/04/29 12:29:14;;;;;;;;;;;;;;;;;;4202717;34;20030;-83
2021/04/29 12:31:44;;;;;;;;;;;;;;;;;;4195848;34;21001;-84
2021/04/29 12:34:15;;;;;;;;;;;;;;;;;;4199110;34;20030;-84
2021/04/29 12:36:45;;;;;;;;;;;;;;;;;;4218532;34;20000;-83
2021/04/29 12:39:17;;;;;;;;;;;;;;;;;;4204288;34;20384;-84
2021/04/29 12:42:05;;;;;;;;;;;;;;;;;;4195775;34;19999;-85
2021/04/29 12:44:42;;;;;;;;;;;;;;;;;;4189047;34;20009;-84
2021/04/29 12:47:12;;;;;;;;;;;;;;;;;;4186952;34;20414;-83
2021/04/29 12:49:46;;;;;;;;;;;;;;;;;;4189105;34;19999;-83
2021/04/29 12:52:16;;;;;;;;;;;;;;;;;;4184811;34;19990;-82
2021/04/29 12:54:48;;;;;;;;;;;;;;;;;;4217978;34;20049;-82
2021/04/29 12:57:19;;;;;;;;;;;;;;;;;;4224576;34;19973;-83
2021/04/29 12:59:49;;;;;;;;;;;;;;;;;;4208008;34;19966;-83
2021/04/29 13:02:19;;;;;;;;;;;;;;;;;;4214746;34;19970;-85
2021/04/29 13:04:50;;;;;;;;;;;;;;;;;;4221738;34;19973;-85
2021/04/29 13:07:20;;;;;;;;;;;;;;;;;;4216056;34;19966;-86
2021/04/29 13:09:50;;;;;;;;;;;;;;;;;;4212383;34;19997;-87
2021/04/29 13:12:21;;;;;;;;;;;;;;;;;;4202162;34;19986;-86
2021/04/29 13:14:51;;;;;;;;;;;;;;;;;;4207539;34;20023;-86
2021/04/29 13:17:21;;;;;;;;;;;;;;;;;;4194849;34;20389;-85
2021/04/29 13:19:51;;;;;;;;;;;;;;;;;;4210504;34;20780;-85
2021/04/29 13:22:19;;;;;;;;;;;;;;;;;;4203344;34;20356;-85
2021/04/29 13:24:50;;;;;;;;;;;;;;;;;;4190458;34;19999;-86
2021/04/29 13:27:20;;;;;;;;;;;;;;;;;;4198827;34;20706;-85
2021/04/29 13:29:47;;;;;;;;;;;;;;;;;;4208236;34;19962;-85
2021/04/29 13:32:20;;;;;;;;;;;;;;;;;;4202975;34;20315;-86
2021/04/29 13:35:00;;;;;;;;;;;;;;;;;;4205556;34;20056;-86
2021/04/29 13:37:31;;;;;;;;;;;;;;;;;;4209803;34;20018;-84
2021/04/29 13:40:04;;;;;;;;;;;;;;;;;;4197802;34;20039;-87
2021/04/29 13:42:35;;;;;;;;;;;;;;;;;;4188307;34;20026;-86
2021/04/29 13:45:05;;;;;;;;;;;;;;;;;;4208181;34;20029;-85
2021/04/29 13:47:36;;;;;;;;;;;;;;;;;;4211590;34;20010;-85
2021/04/29 13:50:06;;;;;;;;;;;;;;;;;;4207167;34;20022;-86
2021/04/29 13:52:37;;;;;;;;;;;;;;;;;;4203430;34;20350;-86
2021/04/29 13:55:05;;;;;;;;;;;;;;;;;;4198760;34;20336;-85
2021/04/29 13:57:35;;;;;;;;;;;;;;;;;;4190428;34;19954;-85
2021/04/29 14:00:07;;;;;;;;;;;;;;;;;;4203437;34;19979;-86
2021/04/29 14:02:41;;;;;;;;;;;;;;;;;;4202002;34;19974;-86
2021/04/29 14:05:12;;;;;;;;;;;;;;;;;;4204960;34;20102;-85
2021/04/29 14:07:43;;;;;;;;;;;;;;;;;;4206131;34;19959;-85
2021/04/29 14:10:13;;;;;;;;;;;;;;;;;;4215783;34;20778;-85
2021/04/29 14:12:43;;;;;;;;;;;;;;;;;;4204114;34;20017;-85
2021/04/29 14:15:17;;;;;;;;;;;;;;;;;;4205006;34;19989;-85
2021/04/29 14:17:47;;;;;;;;;;;;;;;;;;4206937;34;19962;-86
2021/04/29 14:20:17;;;;;;;;;;;;;;;;;;4206072;34;20117;-86
2021/04/29 14:22:47;;;;;;;;;;;;;;;;;;4202669;34;20379;-85
2021/04/29 14:25:18;;;;;;;;;;;;;;;;;;4206704;34;19978;-85
2021/04/29 14:27:48;;;;;;;;;;;;;;;;;;4203445;34;20721;-85
2021/04/29 14:30:19;;;;;;;;;;;;;;;;;;4209249;34;19966;-86
2021/04/29 14:32:48;;;;;;;;;;;;;;;;;;4191070;34;19986;-86
2021/04/29 14:35:17;;;;;;;;;;;;;;;;;;4203679;34;20443;-86
2021/04/29 14:37:47;;;;;;;;;;;;;;;;;;4205274;34;20002;-86
2021/04/29 14:40:16;;;;;;;;;;;;;;;;;;4214812;34;19986;-85
2021/04/29 14:42:47;;;;;;;;;;;;;;;;;;4211591;34;19973;-86
2021/04/29 14:45:19;;;;;;;;;;;;;;;;;;4200874;34;20396;-86
2021/04/29 14:47:50;;;;;;;;;;;;;;;;;;4202352;34;19981;-85
2021/04/29 14:50:21;;;;;;;;;;;;;;;;;;4198478;34;20014;-84
2021/04/29 14:52:51;;;;;;;;;;;;;;;;;;4214131;34;20710;-84
2021/04/29 14:55:21;;;;;;;;;;;;;;;;;;4209234;34;20025;-85
2021/04/29 14:57:51;;;;;;;;;;;;;;;;;;4203188;34;20033;-86
2021/04/29 15:00:19;;;;;;;;;;;;;;;;;;4213994;34;20224;-86
2021/04/29 15:02:49;;;;;;;;;;;;;;;;;;4222975;34;19959;-85
2021/04/29 15:05:19;;;;;;;;;;;;;;;;;;4215490;34;19954;-85
2021/04/29 15:07:50;;;;;;;;;;;;;;;;;;4215852;34;19959;-85
2021/04/29 15:10:20;;;;;;;;;;;;;;;;;;4214764;34;20014;-85
2021/04/29 15:12:57;;;;;;;;;;;;;;;;;;4215602;34;20010;-84
2021/04/29 15:15:28;;;;;;;;;;;;;;;;;;4214072;34;20010;-86
2021/04/29 15:17:55;;;;;;;;;;;;;;;;;;4212723;34;20054;-85
2021/04/29 15:20:25;;;;;;;;;;;;;;;;;;4215670;34;20006;-85
2021/04/29 15:22:56;;;;;;;;;;;;;;;;;;4212033;34;20402;-85
2021/04/29 15:25:26;;;;;;;;;;;;;;;;;;4212783;34;19967;-85
2021/04/29 15:27:58;;;;;;;;;;;;;;;;;;4209441;34;20008;-85
2021/04/29 15:30:28;;;;;;;;;;;;;;;;;;4215753;34;20047;-85
2021/04/29 15:32:58;;;;;;;;;;;;;;;;;;4210131;34;20021;-85
2021/04/29 15:35:29;;;;;;;;;;;;;;;;;;4213446;33;19982;-86
2021/04/29 15:38:00;;;;;;;;;;;;;;;;;;4208996;34;19958;-86
2021/04/29 15:40:30;;;;;;;;;;;;;;;;;;4220119;34;19954;-86
2021/04/29 15:43:01;;;;;;;;;;;;;;;;;;4223427;34;19973;-84
2021/04/29 15:45:31;;;;;;;;;;;;;;;;;;4210128;34;19989;-85
2021/04/29 15:48:01;;;;;;;;;;;;;;;;;;4214616;34;19982;-86
2021/04/29 15:50:34;;;;;;;;;;;;;;;;;;4202827;34;20014;-85
2021/04/29 15:53:05;;;;;;;;;;;;;;;;;;4214179;34;19955;-85
2021/04/29 15:55:45;;;;;;;;;;;;;;;;;;4227193;34;19962;-85
2021/04/29 15:58:15;;;;;;;;;;;;;;;;;;4219758;34;21921;-85
2021/04/29 16:00:45;;;;;;;;;;;;;;;;;;4199337;34;20004;-84
2021/04/29 16:03:13;;;;;;;;;;;;;;;;;;4213842;34;19959;-85
2021/04/29 16:05:43;;;;;;;;;;;;;;;;;;4204050;34;19975;-86
2021/04/29 16:08:13;;;;;;;;;;;;;;;;;;4198938;34;21952;-86
2021/04/29 16:10:43;;;;;;;;;;;;;;;;;;4225132;34;20380;-84
2021/04/29 16:13:13;;;;;;;;;;;;;;;;;;4209905;34;19967;-84
2021/04/29 16:15:43;;;;;;;;;;;;;;;;;;4207140;34;20022;-85
2021/04/29 16:18:13;;;;;;;;;;;;;;;;;;4210449;34;20020;-85
2021/04/29 16:20:43;;;;;;;;;;;;;;;;;;4211468;34;20034;-85
2021/04/29 16:23:13;;;;;;;;;;;;;;;;;;4212669;34;20021;-83
2021/04/29 16:25:44;;;;;;;;;;;;;;;;;;4207067;34;20017;-85
2021/04/29 16:28:14;;;;;;;;;;;;;;;;;;4210426;34;19975;-85
2021/04/29 16:31:04;;;;;;;;;;;;;;;;;;4200622;34;19963;-84
2021/04/29 16:33:35;;;;;;;;;;;;;;;;;;4204912;34;20473;-85
2021/04/29 16:36:05;;;;;;;;;;;;;;;;;;4214028;34;20738;-85
2021/04/29 16:38:35;;;;;;;;;;;;;;;;;;4216331;34;19951;-84
2021/04/29 16:41:06;;;;;;;;;;;;;;;;;;4211584;34;20046;-85
2021/04/29 16:43:35;;;;;;;;;;;;;;;;;;4191168;34;20018;-85
2021/04/29 16:46:06;;;;;;;;;;;;;;;;;;4214889;34;19969;-85
2021/04/29 16:48:36;;;;;;;;;;;;;;;;;;4211319;34;20086;-85
2021/04/29 16:51:06;;;;;;;;;;;;;;;;;;4211379;34;19955;-85
2021/04/29 16:53:37;;;;;;;;;;;;;;;;;;4204968;34;19978;-85
2021/04/29 16:56:07;;;;;;;;;;;;;;;;;;4214041;34;20017;-85
2021/04/29 16:58:35;;;;;;;;;;;;;;;;;;4213309;34;20342;-86
2021/04/29 17:01:06;;;;;;;;;;;;;;;;;;4195953;34;20174;-85
2021/04/29 17:03:36;;;;;;;;;;;;;;;;;;4202026;34;20026;-85
2021/04/29 17:06:06;;;;;;;;;;;;;;;;;;4205941;34;20090;-86
2021/04/29 17:08:36;;;;;;;;;;;;;;;;;;4196614;34;19981;-85
2021/04/29 17:11:07;;;;;;;;;;;;;;;;;;4207293;34;19993;-85
2021/04/29 17:13:37;;;;;;;;;;;;;;;;;;4209072;34;20032;-85
2021/04/29 17:16:09;;;;;;;;;;;;;;;;;;4208280;34;19959;-86
2021/04/29 17:18:40;;;;;;;;;;;;;;;;;;4214085;34;20434;-85
2021/04/29 17:21:16;;;;;;;;;;;;;;;;;;4214819;34;19985;-85
2021/04/29 17:23:46;;;;;;;;;;;;;;;;;;4189184;34;20368;-85
2021/04/29 17:26:17;;;;;;;;;;;;;;;;;;4193201;34;20033;-84
2021/04/29 17:28:50;;;;;;;;;;;;;;;;;;4210694;34;19996;-85
2021/04/29 17:31:36;;;;;;;;;;;;;;;;;;;;;
2021/04/29 17:34:10;;;;;;;;;;;;;;;;;;4202148;34;20025;-85
2021/04/29 17:36:58;;;;;;;;;;;;;;;;;;4202105;34;20028;-85
2021/04/29 17:39:28;;;;;;;;;;;;;;;;;;4209008;34;20426;-85
2021/04/29 17:41:59;;;;;;;;;;;;;;;;;;4214374;34;20331;-85
2021/04/29 17:44:30;;;;;;;;;;;;;;;;;;4197636;34;20020;-86
2021/04/29 17:47:00;;;;;;;;;;;;;;;;;;4197490;34;19995;-85